Glasgo, Connecticut
Current Conditions -  °F | °C
As of 1:53 PM on Friday 28 Nov 2014 (Local Time) from KWST Reporting Station
Clear Clear  
Wind Chill: 27°   Ceiling: Unl
Heat Index: 37°   Visibility: 10mi
Dew Point: 18°   Wind: 17mph
Humidity: 46%   Direction: 330°NNW
Pressure: 30.07"   Gusts: 25mph
Location:  41.56°N, 71.89°W
Report Text: KWST 281853Z AUTO 33015G22KT 10SM CLR 03/M08 A3007 RMK AO2 SLP184 T00281078
Loading
Personal Weather Stations






























Interactive Weather Map New forecast layout! Learn more

10-Day Weather Forecast

Advertisements
Track Severe Weather on mobile